createdAt,value
2022-12-07T00:00:29.828Z,2.60
2022-12-07T00:02:59.626Z,2.63
2022-12-07T00:05:33.720Z,2.57
2022-12-07T00:08:03.409Z,2.67
2022-12-07T00:10:33.060Z,2.74
2022-12-07T00:13:02.796Z,2.65
2022-12-07T00:15:32.432Z,2.75
2022-12-07T00:18:02.063Z,2.75
2022-12-07T00:20:34.457Z,2.77
2022-12-07T00:23:04.054Z,2.78
2022-12-07T00:25:34.190Z,2.80
2022-12-07T00:28:03.851Z,2.83
2022-12-07T00:30:33.559Z,2.82
2022-12-07T00:33:03.226Z,2.86
2022-12-07T00:35:35.384Z,2.90
2022-12-07T00:38:04.995Z,2.82
2022-12-07T00:40:34.516Z,2.90
2022-12-07T00:43:04.109Z,2.94
2022-12-07T00:45:33.749Z,2.92
2022-12-07T00:48:03.307Z,2.96
2022-12-07T00:50:35.567Z,2.98
2022-12-07T00:53:05.151Z,2.96
2022-12-07T00:55:36.809Z,2.97
2022-12-07T00:58:06.989Z,2.99
2022-12-07T01:00:41.469Z,3.01
2022-12-07T01:03:13.304Z,3.01
2022-12-07T01:05:53.369Z,2.98
2022-12-07T01:08:23.355Z,3.01
2022-12-07T01:10:53.814Z,3.02
2022-12-07T01:13:23.370Z,3.04
2022-12-07T01:15:52.839Z,3.10
2022-12-07T01:18:22.433Z,3.03
2022-12-07T01:21:04.197Z,3.11
2022-12-07T01:23:35.064Z,3.10
2022-12-07T01:26:07.604Z,3.09
2022-12-07T01:28:37.698Z,3.03
2022-12-07T01:31:10.956Z,3.06
2022-12-07T01:33:41.395Z,3.07
2022-12-07T01:36:19.815Z,3.08
2022-12-07T01:38:52.626Z,3.07
2022-12-07T01:41:23.088Z,3.11
2022-12-07T01:44:18.835Z,3.08
2022-12-07T01:46:49.530Z,3.09
2022-12-07T01:49:29.425Z,3.13
2022-12-07T01:52:07.732Z,3.07
2022-12-07T01:54:38.862Z,3.11
2022-12-07T01:57:10.637Z,3.07
2022-12-07T01:59:40.521Z,3.07
2022-12-07T02:02:16.356Z,3.09
2022-12-07T02:04:46.697Z,3.16
2022-12-07T02:07:19.620Z,3.16
2022-12-07T02:09:49.170Z,3.12
2022-12-07T02:12:19.045Z,3.10
2022-12-07T02:14:48.731Z,3.17
2022-12-07T02:17:24.915Z,3.18
2022-12-07T02:20:16.187Z,3.16
2022-12-07T02:23:11.810Z,3.18
2022-12-07T02:26:01.465Z,3.20
2022-12-07T02:28:35.252Z,3.21
2022-12-07T02:31:14.570Z,3.23
2022-12-07T02:33:49.330Z,3.19
2022-12-07T02:36:23.908Z,3.19
2022-12-07T02:39:00.347Z,3.21
2022-12-07T02:41:34.053Z,3.19
2022-12-07T02:44:07.192Z,3.15
2022-12-07T02:46:44.707Z,3.27
2022-12-07T02:49:14.860Z,3.26
2022-12-07T02:51:46.855Z,3.19
2022-12-07T02:54:18.357Z,3.23
2022-12-07T02:56:52.534Z,3.27
2022-12-07T02:59:33.847Z,3.32
2022-12-07T03:02:18.059Z,3.29
2022-12-07T03:04:56.771Z,3.25
2022-12-07T03:07:34.953Z,3.30
2022-12-07T03:10:07.725Z,3.25
2022-12-07T03:12:47.670Z,3.33
2022-12-07T03:15:21.707Z,3.35
2022-12-07T03:17:56.971Z,3.34
2022-12-07T03:20:28.967Z,3.40
2022-12-07T03:22:58.729Z,3.43
2022-12-07T03:25:29.781Z,3.47
2022-12-07T03:28:03.382Z,3.50
2022-12-07T03:30:41.222Z,3.57
2022-12-07T03:33:17.577Z,3.61
2022-12-07T03:35:52.618Z,3.58
2022-12-07T03:38:27.243Z,3.69
2022-12-07T03:41:01.667Z,3.69
2022-12-07T03:43:32.656Z,3.66
2022-12-07T03:46:10.993Z,3.74
2022-12-07T03:48:48.578Z,3.70
2022-12-07T03:51:25.337Z,3.73
2022-12-07T03:54:02.622Z,3.75
2022-12-07T03:56:33.900Z,3.71
2022-12-07T03:59:03.498Z,3.69
2022-12-07T04:01:33.157Z,3.67
2022-12-07T04:04:05.399Z,3.70
2022-12-07T04:06:35.195Z,3.65
2022-12-07T04:09:04.772Z,3.66
2022-12-07T04:11:34.647Z,3.67
2022-12-07T04:14:16.717Z,3.72
2022-12-07T04:16:46.323Z,3.74
2022-12-07T04:19:20.150Z,3.73
2022-12-07T04:21:50.502Z,3.75
2022-12-07T04:24:20.931Z,3.78
2022-12-07T04:26:50.914Z,3.81
2022-12-07T04:29:21.835Z,3.80
2022-12-07T04:31:52.077Z,3.80
2022-12-07T04:34:24.437Z,3.82
2022-12-07T04:36:54.252Z,3.85
2022-12-07T04:39:26.101Z,3.82
2022-12-07T04:41:56.109Z,3.85
2022-12-07T04:44:26.930Z,3.86
2022-12-07T04:46:58.273Z,3.84
2022-12-07T04:49:30.628Z,3.83
2022-12-07T04:52:00.431Z,3.86
2022-12-07T04:54:30.079Z,3.83
2022-12-07T04:56:59.698Z,3.83
2022-12-07T04:59:29.585Z,3.86
2022-12-07T05:01:59.196Z,3.88
2022-12-07T05:04:31.549Z,3.83
2022-12-07T05:07:01.289Z,3.83
2022-12-07T05:09:30.848Z,3.82
2022-12-07T05:12:00.448Z,3.84
2022-12-07T05:14:29.987Z,3.84
2022-12-07T05:16:59.494Z,3.82
2022-12-07T05:19:31.731Z,3.80
2022-12-07T05:22:01.252Z,3.77
2022-12-07T05:24:30.905Z,3.75
2022-12-07T05:27:00.543Z,3.72
2022-12-07T05:29:30.190Z,3.74
2022-12-07T05:31:59.779Z,3.71
2022-12-07T05:34:31.929Z,3.66
2022-12-07T05:37:01.419Z,3.62
2022-12-07T05:39:31.273Z,3.65
2022-12-07T05:42:13.310Z,3.65
2022-12-07T05:44:42.936Z,3.61
2022-12-07T05:47:12.999Z,3.58
2022-12-07T05:49:45.389Z,3.60
2022-12-07T05:52:15.227Z,3.58
2022-12-07T05:54:44.898Z,3.58
2022-12-07T05:57:14.422Z,3.55
2022-12-07T05:59:41.839Z,3.54
2022-12-07T06:02:13.422Z,3.59
2022-12-07T06:04:47.868Z,3.59
2022-12-07T06:07:19.742Z,3.62
2022-12-07T06:09:49.374Z,3.66
2022-12-07T06:12:31.363Z,3.61
2022-12-07T06:15:01.521Z,3.62
2022-12-07T06:17:31.049Z,3.57
2022-12-07T06:20:03.352Z,3.60
2022-12-07T06:22:33.348Z,3.50
2022-12-07T06:25:08.301Z,3.47
2022-12-07T06:27:38.641Z,3.36
2022-12-07T06:30:10.050Z,3.29
2022-12-07T06:32:40.927Z,3.31
2022-12-07T06:35:13.343Z,3.32
2022-12-07T06:37:42.867Z,3.36
2022-12-07T06:40:13.648Z,3.41
2022-12-07T06:42:43.252Z,3.37
2022-12-07T06:45:13.892Z,3.33
2022-12-07T06:47:44.986Z,3.32
2022-12-07T06:50:18.393Z,3.33
2022-12-07T06:52:47.859Z,3.30
2022-12-07T06:55:17.554Z,3.28
2022-12-07T06:57:47.197Z,3.32
2022-12-07T07:00:21.991Z,3.33
2022-12-07T07:02:51.934Z,3.34
2022-12-07T07:05:24.484Z,3.34
2022-12-07T07:10:44.444Z,3.38
2022-12-07T07:13:13.922Z,3.47
2022-12-07T07:15:43.525Z,3.46
2022-12-07T07:18:13.297Z,3.45
2022-12-07T07:20:45.483Z,3.51
2022-12-07T07:23:15.643Z,3.54
2022-12-07T07:25:45.361Z,3.48
2022-12-07T07:28:14.906Z,3.49
2022-12-07T07:30:45.072Z,3.52
2022-12-07T07:33:15.174Z,3.47
2022-12-07T07:35:47.344Z,3.46
2022-12-07T07:38:16.919Z,3.50
2022-12-07T07:40:46.435Z,3.43
2022-12-07T07:43:15.994Z,3.47
2022-12-07T07:45:45.623Z,3.46
2022-12-07T07:48:15.297Z,3.48
2022-12-07T07:50:47.410Z,3.46
2022-12-07T07:53:16.914Z,3.51
2022-12-07T07:55:54.331Z,3.50
2022-12-07T07:58:24.215Z,3.45
2022-12-07T08:00:54.226Z,3.51
2022-12-07T08:03:24.053Z,3.53
2022-12-07T08:05:56.141Z,3.58
2022-12-07T08:08:25.789Z,3.53
2022-12-07T08:10:55.326Z,3.51
2022-12-07T08:13:30.604Z,3.54
2022-12-07T08:16:00.726Z,3.47
2022-12-07T08:18:30.315Z,3.53
2022-12-07T08:21:05.689Z,3.57
2022-12-07T08:23:39.810Z,3.51
2022-12-07T08:26:11.203Z,3.58
2022-12-07T08:28:41.593Z,3.60
2022-12-07T08:31:14.558Z,3.67
2022-12-07T08:33:44.184Z,3.64
2022-12-07T08:36:17.056Z,3.59
2022-12-07T08:39:07.742Z,3.66
2022-12-07T08:41:36.490Z,3.64
2022-12-07T08:44:06.819Z,3.69
2022-12-07T08:46:40.390Z,3.70
2022-12-07T08:49:15.372Z,3.61
2022-12-07T08:51:48.271Z,3.69
2022-12-07T08:54:21.105Z,3.62
2022-12-07T08:56:58.700Z,3.65
2022-12-07T08:59:29.998Z,3.69
2022-12-07T09:01:59.850Z,3.66
2022-12-07T09:04:29.462Z,3.65
2022-12-07T09:07:02.603Z,3.69
2022-12-07T09:09:34.489Z,3.66
2022-12-07T09:12:04.031Z,3.76
2022-12-07T09:14:33.998Z,3.86
2022-12-07T09:17:09.737Z,3.79
2022-12-07T09:19:39.511Z,3.69
2022-12-07T09:22:12.147Z,3.75
2022-12-07T09:24:41.834Z,3.69
2022-12-07T09:27:11.436Z,3.65
2022-12-07T09:29:41.006Z,3.74
2022-12-07T09:32:11.998Z,3.78
2022-12-07T09:34:41.769Z,3.83
2022-12-07T09:37:13.892Z,3.82
2022-12-07T09:39:49.822Z,3.79
2022-12-07T09:42:36.576Z,3.79
2022-12-07T09:45:09.660Z,3.83
2022-12-07T09:47:39.139Z,3.84
2022-12-07T09:50:16.180Z,3.83
2022-12-07T09:52:50.946Z,3.86
2022-12-07T09:55:27.352Z,3.91
2022-12-07T09:57:57.201Z,3.91
2022-12-07T10:00:29.441Z,3.94
2022-12-07T10:03:00.786Z,3.90
2022-12-07T10:05:34.060Z,3.88
2022-12-07T10:08:06.650Z,3.93
2022-12-07T10:10:39.767Z,3.91
2022-12-07T10:13:11.766Z,3.91
2022-12-07T10:15:51.246Z,3.94
2022-12-07T10:18:23.675Z,4.01
2022-12-07T10:20:53.287Z,4.05
2022-12-07T10:23:25.335Z,4.02
2022-12-07T10:25:56.092Z,4.10
2022-12-07T10:28:26.252Z,4.15
2022-12-07T10:31:00.785Z,4.11
2022-12-07T10:33:39.945Z,4.07
2022-12-07T10:36:25.513Z,4.13
2022-12-07T10:39:04.502Z,4.06
2022-12-07T10:41:34.369Z,4.08
2022-12-07T10:44:03.904Z,4.06
2022-12-07T10:47:09.136Z,4.13
2022-12-07T10:50:05.045Z,4.15
2022-12-07T10:52:50.373Z,4.19
2022-12-07T10:55:27.238Z,4.23
2022-12-07T10:58:18.113Z,4.05
2022-12-07T11:00:56.212Z,4.22
2022-12-07T11:03:44.198Z,4.24
2022-12-07T11:06:23.975Z,4.18
2022-12-07T11:09:06.343Z,4.24
2022-12-07T11:11:45.998Z,4.35
2022-12-07T11:14:26.774Z,4.49
2022-12-07T11:17:01.070Z,4.51
2022-12-07T11:19:45.409Z,4.53
2022-12-07T11:22:22.215Z,4.48
2022-12-07T11:25:00.215Z,4.42
2022-12-07T11:27:41.334Z,4.44
2022-12-07T11:30:21.838Z,4.47
2022-12-07T11:33:15.794Z,4.35
2022-12-07T11:35:56.604Z,4.36
2022-12-07T11:38:32.780Z,4.27
2022-12-07T11:41:16.937Z,4.42
2022-12-07T11:43:57.723Z,4.48
2022-12-07T11:46:31.315Z,4.81
2022-12-07T11:49:08.168Z,4.77
2022-12-07T11:51:42.135Z,4.77
2022-12-07T11:54:18.065Z,4.85
2022-12-07T11:56:51.040Z,4.80
2022-12-07T11:59:28.874Z,4.79
2022-12-07T12:02:04.607Z,4.78
2022-12-07T12:04:51.217Z,4.68
2022-12-07T12:10:22.705Z,4.77
2022-12-07T12:16:30.502Z,4.76
2022-12-07T12:19:18.364Z,4.69
2022-12-07T12:21:55.511Z,4.78
2022-12-07T12:24:30.739Z,4.69
2022-12-07T12:27:07.684Z,4.64
2022-12-07T12:29:39.773Z,4.56
2022-12-07T12:32:18.763Z,4.44
2022-12-07T12:35:06.220Z,4.44
2022-12-07T12:37:47.580Z,4.46
2022-12-07T12:40:50.529Z,4.36
2022-12-07T12:43:53.158Z,4.47
2022-12-07T12:46:50.761Z,4.49
2022-12-07T12:49:44.045Z,4.53
2022-12-07T12:52:54.738Z,4.53
2022-12-07T12:55:50.311Z,4.38
2022-12-07T12:58:36.920Z,4.62
2022-12-07T13:01:48.637Z,4.80
2022-12-07T13:04:47.850Z,4.83
2022-12-07T13:07:57.649Z,4.64
2022-12-07T13:10:49.433Z,4.60
2022-12-07T13:13:37.224Z,4.42
2022-12-07T13:16:36.715Z,4.39
2022-12-07T13:19:06.231Z,4.30
2022-12-07T13:21:47.202Z,4.27
2022-12-07T13:24:19.323Z,4.20
2022-12-07T13:26:48.911Z,4.18
2022-12-07T13:29:23.869Z,4.19
2022-12-07T13:31:56.000Z,4.21
2022-12-07T13:34:34.914Z,4.26
2022-12-07T13:37:06.419Z,4.27
2022-12-07T13:39:48.104Z,4.21
2022-12-07T13:42:25.897Z,4.30
2022-12-07T13:44:56.080Z,4.21
2022-12-07T13:47:34.563Z,4.19
2022-12-07T13:50:04.226Z,4.18
2022-12-07T13:52:34.968Z,4.13
2022-12-07T13:55:19.798Z,4.18
2022-12-07T13:57:54.070Z,4.14
2022-12-07T14:00:26.296Z,4.18
2022-12-07T14:03:01.192Z,4.16
2022-12-07T14:05:32.814Z,4.15
2022-12-07T14:08:04.907Z,4.17
2022-12-07T14:10:39.421Z,4.20
2022-12-07T14:13:32.503Z,4.11
2022-12-07T14:16:02.283Z,4.13
2022-12-07T14:18:33.979Z,4.03
2022-12-07T14:21:08.480Z,4.08
2022-12-07T14:23:38.094Z,4.05
2022-12-07T14:26:16.291Z,4.04
2022-12-07T14:28:47.199Z,4.06
2022-12-07T14:31:26.238Z,4.07
2022-12-07T14:34:02.836Z,4.01
2022-12-07T14:36:32.383Z,4.04
2022-12-07T14:39:01.991Z,4.09
2022-12-07T14:41:46.793Z,4.02
2022-12-07T14:44:28.049Z,4.08
2022-12-07T14:49:48.949Z,4.05
2022-12-07T14:55:18.226Z,4.10
2022-12-07T14:57:50.408Z,4.13
2022-12-07T15:00:21.323Z,4.13
2022-12-07T15:02:52.079Z,4.18
2022-12-07T15:05:22.359Z,4.16
2022-12-07T15:07:53.347Z,4.15
2022-12-07T15:10:25.530Z,4.13
2022-12-07T15:13:17.626Z,4.19
2022-12-07T15:15:47.263Z,4.17
2022-12-07T15:18:17.191Z,4.13
2022-12-07T15:20:47.380Z,4.13
2022-12-07T15:23:17.296Z,4.08
2022-12-07T15:25:48.319Z,4.13
2022-12-07T15:28:20.435Z,4.10
2022-12-07T15:30:50.078Z,4.09
2022-12-07T15:33:19.887Z,4.14
2022-12-07T15:35:49.388Z,4.12
2022-12-07T15:38:28.623Z,4.10
2022-12-07T15:41:08.545Z,4.10
2022-12-07T15:43:53.085Z,4.14
2022-12-07T15:46:22.719Z,4.11
2022-12-07T15:48:52.328Z,4.11
2022-12-07T15:51:24.697Z,4.13
2022-12-07T15:53:55.518Z,4.11
2022-12-07T15:56:27.920Z,4.13
2022-12-07T15:59:00.376Z,4.15
2022-12-07T16:01:30.079Z,4.14
2022-12-07T16:04:01.647Z,4.14
2022-12-07T16:06:31.301Z,4.12
2022-12-07T16:09:01.162Z,4.03
2022-12-07T16:11:30.737Z,3.83
2022-12-07T16:14:02.914Z,3.61
2022-12-07T16:16:32.940Z,3.50
2022-12-07T16:19:03.808Z,3.29
2022-12-07T16:21:33.446Z,3.18
2022-12-07T16:24:03.079Z,2.97
2022-12-07T16:26:32.877Z,2.80
2022-12-07T16:29:05.153Z,2.83
2022-12-07T16:31:35.326Z,2.72
2022-12-07T16:34:04.893Z,2.63
2022-12-07T16:37:02.496Z,2.62
2022-12-07T16:39:25.518Z,2.59
2022-12-07T16:41:55.475Z,2.56
2022-12-07T16:44:27.638Z,2.67
2022-12-07T16:46:57.390Z,2.58
2022-12-07T16:49:27.457Z,2.57
2022-12-07T16:52:23.663Z,2.60
2022-12-07T16:54:46.698Z,2.49
2022-12-07T16:57:21.905Z,2.53
2022-12-07T16:59:55.940Z,2.54
2022-12-07T17:02:25.508Z,2.64
2022-12-07T17:04:56.723Z,2.60
2022-12-07T17:07:28.273Z,2.69
2022-12-07T17:09:57.868Z,2.76
2022-12-07T17:12:27.607Z,2.73
2022-12-07T17:15:12.298Z,2.74
2022-12-07T17:17:41.910Z,2.67
2022-12-07T17:20:12.540Z,2.76
2022-12-07T17:22:42.631Z,2.66
2022-12-07T17:25:12.758Z,2.67
2022-12-07T17:27:42.388Z,2.63
2022-12-07T17:30:16.607Z,2.70
2022-12-07T17:32:48.281Z,2.62
2022-12-07T17:35:18.137Z,2.52
2022-12-07T17:37:51.111Z,2.52
2022-12-07T17:40:21.165Z,2.62
2022-12-07T17:42:51.656Z,2.61
2022-12-07T17:45:24.206Z,2.55
2022-12-07T17:47:54.218Z,2.55
2022-12-07T17:50:44.161Z,2.57
2022-12-07T17:53:12.478Z,2.61
2022-12-07T17:56:19.573Z,2.58
2022-12-07T17:58:32.551Z,2.66
2022-12-07T18:01:04.829Z,2.62
2022-12-07T18:03:34.554Z,2.68
2022-12-07T18:06:04.126Z,2.67
2022-12-07T18:08:37.473Z,2.62
2022-12-07T18:11:07.669Z,2.57
2022-12-07T18:13:40.822Z,2.58
2022-12-07T18:16:17.355Z,2.59
2022-12-07T18:18:52.579Z,2.64
2022-12-07T18:21:25.060Z,2.56
2022-12-07T18:23:57.203Z,2.57
2022-12-07T18:26:28.686Z,2.55
2022-12-07T18:28:58.487Z,2.49
2022-12-07T18:31:32.035Z,2.35
2022-12-07T18:34:04.994Z,2.33
2022-12-07T18:36:34.764Z,2.20
2022-12-07T18:39:07.930Z,2.23
2022-12-07T18:41:38.057Z,2.13
2022-12-07T18:44:08.993Z,2.19
2022-12-07T18:46:42.404Z,2.11
2022-12-07T18:49:13.087Z,2.14
2022-12-07T18:51:43.007Z,2.06
2022-12-07T18:54:12.847Z,1.92
2022-12-07T18:56:42.486Z,1.98
2022-12-07T18:59:29.088Z,1.91
2022-12-07T19:02:01.431Z,1.86
2022-12-07T19:04:31.105Z,1.89
2022-12-07T19:07:00.767Z,1.85
2022-12-07T19:09:30.403Z,1.77
2022-12-07T19:12:03.460Z,1.79
2022-12-07T19:14:35.397Z,1.81
2022-12-07T19:17:10.654Z,1.76
2022-12-07T19:19:42.471Z,1.77
2022-12-07T19:22:14.165Z,1.73
2022-12-07T19:24:44.018Z,1.67
2022-12-07T19:27:17.870Z,1.67
2022-12-07T19:29:48.831Z,1.62
2022-12-07T19:32:23.493Z,1.56
2022-12-07T19:34:53.223Z,1.64
2022-12-07T19:37:22.686Z,1.67
2022-12-07T19:39:52.544Z,1.61
2022-12-07T19:42:22.302Z,1.65
2022-12-07T19:44:52.191Z,1.65
2022-12-07T19:47:24.316Z,1.61
2022-12-07T19:49:53.920Z,1.64
2022-12-07T19:52:23.450Z,1.66
2022-12-07T19:54:55.392Z,1.69
2022-12-07T19:57:25.183Z,1.81
2022-12-07T19:59:54.749Z,1.80
2022-12-07T20:02:26.948Z,1.76
2022-12-07T20:04:56.463Z,1.85
2022-12-07T20:07:26.016Z,1.85
2022-12-07T20:09:55.707Z,1.79
2022-12-07T20:12:37.723Z,1.67
2022-12-07T20:15:08.405Z,1.72
2022-12-07T20:17:40.551Z,1.67
2022-12-07T20:20:11.503Z,1.60
2022-12-07T20:22:41.019Z,1.52
2022-12-07T20:25:11.415Z,1.68
2022-12-07T20:27:52.709Z,1.66
2022-12-07T20:30:22.463Z,1.63
2022-12-07T20:32:56.836Z,1.68
2022-12-07T20:35:34.478Z,1.59
2022-12-07T20:38:12.879Z,1.68
2022-12-07T20:40:57.575Z,1.61
2022-12-07T20:43:35.067Z,1.71
2022-12-07T20:46:11.667Z,1.76
2022-12-07T20:48:56.202Z,1.78
2022-12-07T20:51:39.504Z,1.61
2022-12-07T20:54:09.148Z,1.57
2022-12-07T20:56:39.172Z,1.71
2022-12-07T20:59:11.331Z,1.77
2022-12-07T21:01:41.054Z,1.74
2022-12-07T21:04:14.715Z,1.78
2022-12-07T21:06:44.810Z,1.89
2022-12-07T21:09:14.825Z,1.75
2022-12-07T21:11:44.453Z,1.90
2022-12-07T21:14:14.348Z,1.91
2022-12-07T21:16:43.957Z,1.99
2022-12-07T21:19:16.616Z,2.01
2022-12-07T21:21:46.325Z,2.05
2022-12-07T21:24:16.011Z,2.06
2022-12-07T21:26:45.567Z,2.16
2022-12-07T21:29:17.204Z,2.12
2022-12-07T21:31:49.955Z,2.22
2022-12-07T21:34:22.201Z,2.17
2022-12-07T21:36:51.878Z,2.29
2022-12-07T21:39:21.597Z,2.35
2022-12-07T21:41:51.417Z,2.35
2022-12-07T21:44:21.276Z,2.36
2022-12-07T21:46:51.195Z,2.36
2022-12-07T21:49:23.687Z,2.39
2022-12-07T21:51:53.346Z,2.38
2022-12-07T21:54:26.059Z,2.46
2022-12-07T21:56:56.224Z,2.45
2022-12-07T21:59:26.031Z,2.46
2022-12-07T22:01:55.982Z,2.55
2022-12-07T22:04:29.524Z,2.44
2022-12-07T22:07:00.260Z,2.51
2022-12-07T22:09:30.767Z,2.57
2022-12-07T22:12:00.569Z,2.55
2022-12-07T22:14:42.934Z,2.53
2022-12-07T22:17:12.650Z,2.60
2022-12-07T22:19:44.900Z,2.57
2022-12-07T22:22:17.900Z,2.60
2022-12-07T22:24:48.327Z,2.66
2022-12-07T22:27:18.305Z,2.63
2022-12-07T22:29:48.417Z,2.63
2022-12-07T22:32:47.043Z,2.63
2022-12-07T22:35:11.263Z,2.71
2022-12-07T22:37:40.930Z,2.66
2022-12-07T22:40:12.040Z,2.63
2022-12-07T22:42:41.987Z,2.59
2022-12-07T22:45:12.779Z,2.42
2022-12-07T22:47:43.165Z,2.43
2022-12-07T22:50:16.562Z,2.46
2022-12-07T22:52:46.227Z,2.50
2022-12-07T22:55:15.772Z,2.52
2022-12-07T22:57:45.319Z,2.50
2022-12-07T23:00:16.447Z,2.56
2022-12-07T23:02:46.026Z,2.56
2022-12-07T23:05:18.415Z,2.58
2022-12-07T23:07:48.035Z,2.57
2022-12-07T23:10:17.722Z,2.62
2022-12-07T23:12:59.802Z,2.67
2022-12-07T23:15:29.484Z,2.57
2022-12-07T23:17:59.107Z,2.65
2022-12-07T23:20:31.340Z,2.66
2022-12-07T23:23:00.932Z,2.64
2022-12-07T23:25:30.900Z,2.64
2022-12-07T23:28:00.608Z,2.60
2022-12-07T23:30:30.327Z,2.56
2022-12-07T23:32:59.962Z,2.62
2022-12-07T23:35:32.425Z,2.70
2022-12-07T23:38:02.043Z,2.72
2022-12-07T23:40:32.058Z,2.66
2022-12-07T23:43:01.682Z,2.68
2022-12-07T23:45:31.315Z,2.64
2022-12-07T23:48:01.122Z,2.64
2022-12-07T23:50:34.477Z,2.68
2022-12-07T23:53:04.216Z,2.69
2022-12-07T23:55:33.935Z,2.68
2022-12-07T23:58:03.480Z,2.68
